sensor_id;sensor_type;location;lat;lon;timestamp;temperature;humidity
36552;DHT22;22559;54.176;12.102;2023-03-01T00:01:24;2.20;99.90
36552;DHT22;22559;54.176;12.102;2023-03-01T00:03:50;2.20;99.90
36552;DHT22;22559;54.176;12.102;2023-03-01T00:06:16;2.20;99.90
36552;DHT22;22559;54.176;12.102;2023-03-01T00:08:41;2.20;99.90
36552;DHT22;22559;54.176;12.102;2023-03-01T00:11:13;2.20;99.90
36552;DHT22;22559;54.176;12.102;2023-03-01T00:13:40;2.20;99.90
36552;DHT22;22559;54.176;12.102;2023-03-01T00:16:10;2.20;99.90
36552;DHT22;22559;54.176;12.102;2023-03-01T00:18:36;2.20;99.90
36552;DHT22;22559;54.176;12.102;2023-03-01T00:21:02;2.10;99.90
36552;DHT22;22559;54.176;12.102;2023-03-01T00:23:27;2.10;99.90
36552;DHT22;22559;54.176;12.102;2023-03-01T00:25:53;2.00;99.90
36552;DHT22;22559;54.176;12.102;2023-03-01T00:28:19;2.00;99.90
36552;DHT22;22559;54.176;12.102;2023-03-01T00:30:45;2.00;99.90
36552;DHT22;22559;54.176;12.102;2023-03-01T00:33:11;2.00;99.90
36552;DHT22;22559;54.176;12.102;2023-03-01T00:35:36;2.00;99.90
36552;DHT22;22559;54.176;12.102;2023-03-01T00:38:02;2.00;99.90
36552;DHT22;22559;54.176;12.102;2023-03-01T00:40:30;2.00;99.90
36552;DHT22;22559;54.176;12.102;2023-03-01T00:42:56;2.00;99.90
36552;DHT22;22559;54.176;12.102;2023-03-01T00:45:21;2.00;99.90
36552;DHT22;22559;54.176;12.102;2023-03-01T00:47:48;2.00;99.90
36552;DHT22;22559;54.176;12.102;2023-03-01T00:50:14;2.00;99.90
36552;DHT22;22559;54.176;12.102;2023-03-01T00:52:40;1.90;99.90
36552;DHT22;22559;54.176;12.102;2023-03-01T00:55:06;1.90;99.90
36552;DHT22;22559;54.176;12.102;2023-03-01T00:57:32;1.90;99.90
36552;DHT22;22559;54.176;12.102;2023-03-01T00:59:59;1.90;99.90
36552;DHT22;22559;54.176;12.102;2023-03-01T01:02:24;1.80;99.90
36552;DHT22;22559;54.176;12.102;2023-03-01T01:04:50;1.80;99.90
36552;DHT22;22559;54.176;12.102;2023-03-01T01:07:16;1.80;99.90
36552;DHT22;22559;54.176;12.102;2023-03-01T01:09:41;1.80;99.90
36552;DHT22;22559;54.176;12.102;2023-03-01T01:12:07;1.80;99.90
36552;DHT22;22559;54.176;12.102;2023-03-01T01:14:34;1.70;99.90
36552;DHT22;22559;54.176;12.102;2023-03-01T01:16:59;1.80;99.90
36552;DHT22;22559;54.176;12.102;2023-03-01T01:19:25;1.70;99.90
36552;DHT22;22559;54.176;12.102;2023-03-01T01:21:52;1.80;99.90
36552;DHT22;22559;54.176;12.102;2023-03-01T01:24:18;1.80;99.90
36552;DHT22;22559;54.176;12.102;2023-03-01T01:26:44;1.80;99.90
36552;DHT22;22559;54.176;12.102;2023-03-01T01:29:10;1.90;99.90
36552;DHT22;22559;54.176;12.102;2023-03-01T01:31:38;2.00;99.90
36552;DHT22;22559;54.176;12.102;2023-03-01T01:34:06;2.00;99.90
36552;DHT22;22559;54.176;12.102;2023-03-01T01:36:33;2.00;99.90
36552;DHT22;22559;54.176;12.102;2023-03-01T01:38:59;2.00;99.90
36552;DHT22;22559;54.176;12.102;2023-03-01T01:41:26;2.10;99.90
36552;DHT22;22559;54.176;12.102;2023-03-01T01:44:15;2.10;99.90
36552;DHT22;22559;54.176;12.102;2023-03-01T01:54:38;2.10;99.90
36552;DHT22;22559;54.176;12.102;2023-03-01T01:57:14;2.10;99.90
36552;DHT22;22559;54.176;12.102;2023-03-01T01:59:44;2.10;99.90
36552;DHT22;22559;54.176;12.102;2023-03-01T02:02:11;2.00;99.90
36552;DHT22;22559;54.176;12.102;2023-03-01T02:04:38;2.00;99.90
36552;DHT22;22559;54.176;12.102;2023-03-01T02:09:35;2.00;99.90
36552;DHT22;22559;54.176;12.102;2023-03-01T02:12:02;1.90;99.90
36552;DHT22;22559;54.176;12.102;2023-03-01T02:14:29;1.90;99.90
36552;DHT22;22559;54.176;12.102;2023-03-01T02:16:55;1.90;99.90
36552;DHT22;22559;54.176;12.102;2023-03-01T02:19:40;1.90;99.90
36552;DHT22;22559;54.176;12.102;2023-03-01T02:22:20;1.80;99.90
36552;DHT22;22559;54.176;12.102;2023-03-01T02:27:45;1.80;99.90
36552;DHT22;22559;54.176;12.102;2023-03-01T02:30:15;1.80;99.90
36552;DHT22;22559;54.176;12.102;2023-03-01T02:32:41;1.80;99.90
36552;DHT22;22559;54.176;12.102;2023-03-01T02:35:13;1.80;99.90
36552;DHT22;22559;54.176;12.102;2023-03-01T02:37:40;1.80;99.90
36552;DHT22;22559;54.176;12.102;2023-03-01T02:40:09;1.80;99.90
36552;DHT22;22559;54.176;12.102;2023-03-01T02:42:58;1.90;99.90
36552;DHT22;22559;54.176;12.102;2023-03-01T02:45:25;1.80;99.90
36552;DHT22;22559;54.176;12.102;2023-03-01T02:47:54;1.90;99.90
36552;DHT22;22559;54.176;12.102;2023-03-01T02:53:07;1.80;99.90
36552;DHT22;22559;54.176;12.102;2023-03-01T02:55:34;1.90;99.90
36552;DHT22;22559;54.176;12.102;2023-03-01T02:58:02;1.90;99.90
36552;DHT22;22559;54.176;12.102;2023-03-01T03:00:37;1.90;99.90
36552;DHT22;22559;54.176;12.102;2023-03-01T03:03:16;1.90;99.90
36552;DHT22;22559;54.176;12.102;2023-03-01T03:05:43;1.90;99.90
36552;DHT22;22559;54.176;12.102;2023-03-01T03:08:09;1.90;99.90
36552;DHT22;22559;54.176;12.102;2023-03-01T03:10:39;1.90;99.90
36552;DHT22;22559;54.176;12.102;2023-03-01T03:13:11;1.90;99.90
36552;DHT22;22559;54.176;12.102;2023-03-01T03:15:37;1.90;99.90
36552;DHT22;22559;54.176;12.102;2023-03-01T03:18:06;1.90;99.90
36552;DHT22;22559;54.176;12.102;2023-03-01T03:20:33;1.90;99.90
36552;DHT22;22559;54.176;12.102;2023-03-01T03:22:59;1.90;99.90
36552;DHT22;22559;54.176;12.102;2023-03-01T03:25:26;1.80;99.90
36552;DHT22;22559;54.176;12.102;2023-03-01T03:27:52;1.80;99.90
36552;DHT22;22559;54.176;12.102;2023-03-01T03:30:23;1.70;99.90
36552;DHT22;22559;54.176;12.102;2023-03-01T03:32:49;1.60;99.90
36552;DHT22;22559;54.176;12.102;2023-03-01T03:35:20;1.50;99.90
36552;DHT22;22559;54.176;12.102;2023-03-01T03:37:45;1.50;99.90
36552;DHT22;22559;54.176;12.102;2023-03-01T03:40:37;1.40;99.90
36552;DHT22;22559;54.176;12.102;2023-03-01T03:43:05;1.40;99.90
36552;DHT22;22559;54.176;12.102;2023-03-01T03:45:31;1.30;99.90
36552;DHT22;22559;54.176;12.102;2023-03-01T03:47:59;1.30;99.90
36552;DHT22;22559;54.176;12.102;2023-03-01T03:50:25;1.30;99.90
36552;DHT22;22559;54.176;12.102;2023-03-01T03:52:51;1.20;99.90
36552;DHT22;22559;54.176;12.102;2023-03-01T03:55:17;1.20;99.90
36552;DHT22;22559;54.176;12.102;2023-03-01T03:57:46;1.20;99.90
36552;DHT22;22559;54.176;12.102;2023-03-01T04:00:18;1.30;99.90
36552;DHT22;22559;54.176;12.102;2023-03-01T04:02:44;1.20;99.90
36552;DHT22;22559;54.176;12.102;2023-03-01T04:05:12;1.20;99.90
36552;DHT22;22559;54.176;12.102;2023-03-01T04:07:40;1.20;99.90
36552;DHT22;22559;54.176;12.102;2023-03-01T04:10:08;1.20;99.90
36552;DHT22;22559;54.176;12.102;2023-03-01T04:12:35;1.20;99.90
36552;DHT22;22559;54.176;12.102;2023-03-01T04:15:01;1.10;99.90
36552;DHT22;22559;54.176;12.102;2023-03-01T04:17:38;1.10;99.90
36552;DHT22;22559;54.176;12.102;2023-03-01T04:20:05;1.10;99.90
36552;DHT22;22559;54.176;12.102;2023-03-01T04:22:31;1.00;99.90
36552;DHT22;22559;54.176;12.102;2023-03-01T04:24:57;1.10;99.90
36552;DHT22;22559;54.176;12.102;2023-03-01T04:27:23;1.10;99.90
36552;DHT22;22559;54.176;12.102;2023-03-01T04:29:49;1.10;99.90
36552;DHT22;22559;54.176;12.102;2023-03-01T04:32:14;1.20;99.90
36552;DHT22;22559;54.176;12.102;2023-03-01T04:34:41;1.30;99.90
36552;DHT22;22559;54.176;12.102;2023-03-01T04:37:07;1.30;99.90
36552;DHT22;22559;54.176;12.102;2023-03-01T04:39:34;1.20;99.90
36552;DHT22;22559;54.176;12.102;2023-03-01T04:42:11;1.20;99.90
36552;DHT22;22559;54.176;12.102;2023-03-01T04:44:37;1.20;99.90
36552;DHT22;22559;54.176;12.102;2023-03-01T04:47:03;1.20;99.90
36552;DHT22;22559;54.176;12.102;2023-03-01T04:49:29;1.20;99.90
36552;DHT22;22559;54.176;12.102;2023-03-01T04:51:54;1.10;99.90
36552;DHT22;22559;54.176;12.102;2023-03-01T04:54:20;1.10;99.90
36552;DHT22;22559;54.176;12.102;2023-03-01T04:56:46;1.20;99.90
36552;DHT22;22559;54.176;12.102;2023-03-01T04:59:11;1.20;99.90
36552;DHT22;22559;54.176;12.102;2023-03-01T05:01:38;1.10;99.90
36552;DHT22;22559;54.176;12.102;2023-03-01T05:04:03;1.10;99.90
36552;DHT22;22559;54.176;12.102;2023-03-01T05:06:31;1.20;99.90
36552;DHT22;22559;54.176;12.102;2023-03-01T05:08:58;1.20;99.90
36552;DHT22;22559;54.176;12.102;2023-03-01T05:11:23;1.20;99.90
36552;DHT22;22559;54.176;12.102;2023-03-01T05:13:49;1.10;99.90
36552;DHT22;22559;54.176;12.102;2023-03-01T05:16:20;1.10;99.90
36552;DHT22;22559;54.176;12.102;2023-03-01T05:18:49;1.10;99.90
36552;DHT22;22559;54.176;12.102;2023-03-01T05:21:17;1.10;99.90
36552;DHT22;22559;54.176;12.102;2023-03-01T05:23:43;1.10;99.90
36552;DHT22;22559;54.176;12.102;2023-03-01T05:26:09;1.00;99.90
36552;DHT22;22559;54.176;12.102;2023-03-01T05:28:38;1.00;99.90
36552;DHT22;22559;54.176;12.102;2023-03-01T05:31:05;1.10;99.90
36552;DHT22;22559;54.176;12.102;2023-03-01T05:33:38;1.20;99.90
36552;DHT22;22559;54.176;12.102;2023-03-01T05:36:07;1.20;99.90
36552;DHT22;22559;54.176;12.102;2023-03-01T05:38:33;1.20;99.90
36552;DHT22;22559;54.176;12.102;2023-03-01T05:40:58;1.20;99.90
36552;DHT22;22559;54.176;12.102;2023-03-01T05:43:24;1.20;99.90
36552;DHT22;22559;54.176;12.102;2023-03-01T05:45:50;1.30;99.90
36552;DHT22;22559;54.176;12.102;2023-03-01T05:48:15;1.40;99.90
36552;DHT22;22559;54.176;12.102;2023-03-01T05:50:43;1.40;99.90
36552;DHT22;22559;54.176;12.102;2023-03-01T05:53:20;1.40;99.90
36552;DHT22;22559;54.176;12.102;2023-03-01T05:55:48;1.40;99.90
36552;DHT22;22559;54.176;12.102;2023-03-01T05:58:17;1.40;99.90
36552;DHT22;22559;54.176;12.102;2023-03-01T06:00:45;1.50;99.90
36552;DHT22;22559;54.176;12.102;2023-03-01T06:03:12;1.50;99.90
36552;DHT22;22559;54.176;12.102;2023-03-01T06:05:39;1.60;99.90
36552;DHT22;22559;54.176;12.102;2023-03-01T06:08:05;1.70;99.90
36552;DHT22;22559;54.176;12.102;2023-03-01T06:10:31;1.70;99.90
36552;DHT22;22559;54.176;12.102;2023-03-01T06:12:57;1.80;99.90
36552;DHT22;22559;54.176;12.102;2023-03-01T06:15:26;1.90;99.90
36552;DHT22;22559;54.176;12.102;2023-03-01T06:17:54;2.00;99.90
36552;DHT22;22559;54.176;12.102;2023-03-01T06:20:23;2.10;99.90
36552;DHT22;22559;54.176;12.102;2023-03-01T06:22:50;2.20;99.90
36552;DHT22;22559;54.176;12.102;2023-03-01T06:25:18;2.30;99.90
36552;DHT22;22559;54.176;12.102;2023-03-01T06:27:44;2.40;99.90
36552;DHT22;22559;54.176;12.102;2023-03-01T06:30:12;2.50;99.90
36552;DHT22;22559;54.176;12.102;2023-03-01T06:32:39;2.50;99.90
36552;DHT22;22559;54.176;12.102;2023-03-01T06:35:08;2.50;99.90
36552;DHT22;22559;54.176;12.102;2023-03-01T06:37:33;2.50;99.90
36552;DHT22;22559;54.176;12.102;2023-03-01T06:40:01;2.50;99.90
36552;DHT22;22559;54.176;12.102;2023-03-01T06:42:32;2.60;99.90
36552;DHT22;22559;54.176;12.102;2023-03-01T06:44:57;2.60;99.90
36552;DHT22;22559;54.176;12.102;2023-03-01T06:47:23;2.70;99.90
36552;DHT22;22559;54.176;12.102;2023-03-01T06:49:49;2.70;99.90
36552;DHT22;22559;54.176;12.102;2023-03-01T06:52:14;2.70;99.90
36552;DHT22;22559;54.176;12.102;2023-03-01T06:54:40;2.80;99.90
36552;DHT22;22559;54.176;12.102;2023-03-01T06:57:06;2.80;99.90
36552;DHT22;22559;54.176;12.102;2023-03-01T06:59:31;2.80;99.90
36552;DHT22;22559;54.176;12.102;2023-03-01T07:01:57;2.90;99.90
36552;DHT22;22559;54.176;12.102;2023-03-01T07:04:22;2.90;99.90
36552;DHT22;22559;54.176;12.102;2023-03-01T07:06:48;3.00;99.90
36552;DHT22;22559;54.176;12.102;2023-03-01T07:09:21;3.00;99.90
36552;DHT22;22559;54.176;12.102;2023-03-01T07:11:47;3.00;99.90
36552;DHT22;22559;54.176;12.102;2023-03-01T07:14:13;3.00;99.90
36552;DHT22;22559;54.176;12.102;2023-03-01T07:16:38;3.00;99.90
36552;DHT22;22559;54.176;12.102;2023-03-01T07:19:04;3.00;99.90
36552;DHT22;22559;54.176;12.102;2023-03-01T07:21:31;3.00;99.90
36552;DHT22;22559;54.176;12.102;2023-03-01T07:23:56;3.10;99.90
36552;DHT22;22559;54.176;12.102;2023-03-01T07:26:22;3.10;99.90
36552;DHT22;22559;54.176;12.102;2023-03-01T07:28:48;3.20;99.90
36552;DHT22;22559;54.176;12.102;2023-03-01T07:31:14;3.20;99.90
36552;DHT22;22559;54.176;12.102;2023-03-01T07:33:39;3.20;99.90
36552;DHT22;22559;54.176;12.102;2023-03-01T07:36:06;3.40;99.90
36552;DHT22;22559;54.176;12.102;2023-03-01T07:38:31;3.50;99.90
36552;DHT22;22559;54.176;12.102;2023-03-01T07:40:59;3.50;99.90
36552;DHT22;22559;54.176;12.102;2023-03-01T07:43:26;3.50;99.90
36552;DHT22;22559;54.176;12.102;2023-03-01T07:45:52;3.60;99.90
36552;DHT22;22559;54.176;12.102;2023-03-01T07:48:17;3.60;99.90
36552;DHT22;22559;54.176;12.102;2023-03-01T07:50:43;3.70;99.90
36552;DHT22;22559;54.176;12.102;2023-03-01T07:53:09;3.70;99.90
36552;DHT22;22559;54.176;12.102;2023-03-01T07:55:36;3.80;99.90
36552;DHT22;22559;54.176;12.102;2023-03-01T07:58:02;3.80;99.90
36552;DHT22;22559;54.176;12.102;2023-03-01T08:00:27;3.90;99.90
36552;DHT22;22559;54.176;12.102;2023-03-01T08:02:53;4.00;99.90
36552;DHT22;22559;54.176;12.102;2023-03-01T08:05:19;3.90;99.90
36552;DHT22;22559;54.176;12.102;2023-03-01T08:07:44;4.00;99.90
36552;DHT22;22559;54.176;12.102;2023-03-01T08:10:10;3.90;99.90
36552;DHT22;22559;54.176;12.102;2023-03-01T08:12:36;4.00;99.90
36552;DHT22;22559;54.176;12.102;2023-03-01T08:15:02;4.00;99.90
36552;DHT22;22559;54.176;12.102;2023-03-01T08:17:28;4.00;99.90
36552;DHT22;22559;54.176;12.102;2023-03-01T08:19:53;4.10;99.90
36552;DHT22;22559;54.176;12.102;2023-03-01T08:22:19;4.10;99.90
36552;DHT22;22559;54.176;12.102;2023-03-01T08:24:45;4.10;99.90
36552;DHT22;22559;54.176;12.102;2023-03-01T08:27:11;4.10;99.90
36552;DHT22;22559;54.176;12.102;2023-03-01T08:29:37;4.10;99.90
36552;DHT22;22559;54.176;12.102;2023-03-01T08:32:03;4.20;99.90
36552;DHT22;22559;54.176;12.102;2023-03-01T08:34:29;4.10;99.90
36552;DHT22;22559;54.176;12.102;2023-03-01T08:36:56;4.10;99.90
36552;DHT22;22559;54.176;12.102;2023-03-01T08:39:22;4.10;99.90
36552;DHT22;22559;54.176;12.102;2023-03-01T08:41:47;4.10;99.90
36552;DHT22;22559;54.176;12.102;2023-03-01T08:44:14;4.10;99.90
36552;DHT22;22559;54.176;12.102;2023-03-01T08:46:42;4.10;99.90
36552;DHT22;22559;54.176;12.102;2023-03-01T08:49:16;4.10;99.90
36552;DHT22;22559;54.176;12.102;2023-03-01T08:51:43;4.10;99.90
36552;DHT22;22559;54.176;12.102;2023-03-01T08:54:18;4.20;99.90
36552;DHT22;22559;54.176;12.102;2023-03-01T08:56:44;4.20;99.90
36552;DHT22;22559;54.176;12.102;2023-03-01T08:59:14;4.30;99.90
36552;DHT22;22559;54.176;12.102;2023-03-01T09:01:40;4.30;99.90
36552;DHT22;22559;54.176;12.102;2023-03-01T09:04:08;4.30;99.90
36552;DHT22;22559;54.176;12.102;2023-03-01T09:06:34;4.30;99.90
36552;DHT22;22559;54.176;12.102;2023-03-01T09:09:01;4.40;99.90
36552;DHT22;22559;54.176;12.102;2023-03-01T09:11:27;4.50;99.90
36552;DHT22;22559;54.176;12.102;2023-03-01T09:13:53;4.60;99.90
36552;DHT22;22559;54.176;12.102;2023-03-01T09:16:20;4.70;99.90
36552;DHT22;22559;54.176;12.102;2023-03-01T09:18:53;4.60;99.90
36552;DHT22;22559;54.176;12.102;2023-03-01T09:21:21;4.60;99.90
36552;DHT22;22559;54.176;12.102;2023-03-01T09:23:48;4.60;99.90
36552;DHT22;22559;54.176;12.102;2023-03-01T09:26:23;4.70;99.90
36552;DHT22;22559;54.176;12.102;2023-03-01T09:28:53;4.70;99.90
36552;DHT22;22559;54.176;12.102;2023-03-01T09:31:21;4.70;99.90
36552;DHT22;22559;54.176;12.102;2023-03-01T09:33:49;4.70;99.90
36552;DHT22;22559;54.176;12.102;2023-03-01T09:36:17;4.70;99.90
36552;DHT22;22559;54.176;12.102;2023-03-01T09:38:43;4.80;99.90
36552;DHT22;22559;54.176;12.102;2023-03-01T09:41:14;4.80;99.90
36552;DHT22;22559;54.176;12.102;2023-03-01T09:46:13;4.60;99.90
36552;DHT22;22559;54.176;12.102;2023-03-01T09:48:55;4.70;99.90
36552;DHT22;22559;54.176;12.102;2023-03-01T09:51:33;4.80;99.90
36552;DHT22;22559;54.176;12.102;2023-03-01T09:54:04;4.80;99.90
36552;DHT22;22559;54.176;12.102;2023-03-01T09:56:41;4.90;99.90
36552;DHT22;22559;54.176;12.102;2023-03-01T09:59:19;5.00;99.90
36552;DHT22;22559;54.176;12.102;2023-03-01T10:02:54;5.00;99.90
36552;DHT22;22559;54.176;12.102;2023-03-01T10:05:01;5.00;99.90
36552;DHT22;22559;54.176;12.102;2023-03-01T10:07:45;5.00;99.90
36552;DHT22;22559;54.176;12.102;2023-03-01T10:10:33;5.00;99.90
36552;DHT22;22559;54.176;12.102;2023-03-01T10:13:08;4.90;99.90
36552;DHT22;22559;54.176;12.102;2023-03-01T10:15:47;5.00;99.90
36552;DHT22;22559;54.176;12.102;2023-03-01T10:18:17;5.00;99.90
36552;DHT22;22559;54.176;12.102;2023-03-01T10:21:00;5.00;99.90
36552;DHT22;22559;54.176;12.102;2023-03-01T10:23:29;5.00;99.90
36552;DHT22;22559;54.176;12.102;2023-03-01T10:31:26;5.10;99.90
36552;DHT22;22559;54.176;12.102;2023-03-01T10:33:55;5.20;99.90
36552;DHT22;22559;54.176;12.102;2023-03-01T10:36:23;5.20;99.90
36552;DHT22;22559;54.176;12.102;2023-03-01T10:38:57;5.20;99.90
36552;DHT22;22559;54.176;12.102;2023-03-01T10:41:25;5.20;99.90
36552;DHT22;22559;54.176;12.102;2023-03-01T10:43:55;5.20;99.90
36552;DHT22;22559;54.176;12.102;2023-03-01T10:46:31;5.10;99.90
36552;DHT22;22559;54.176;12.102;2023-03-01T10:49:23;5.10;99.90
36552;DHT22;22559;54.176;12.102;2023-03-01T10:51:52;5.10;99.90
36552;DHT22;22559;54.176;12.102;2023-03-01T10:54:32;5.10;99.90
36552;DHT22;22559;54.176;12.102;2023-03-01T10:57:00;5.20;99.90
36552;DHT22;22559;54.176;12.102;2023-03-01T11:04:57;5.30;99.90
36552;DHT22;22559;54.176;12.102;2023-03-01T11:07:23;5.30;99.90
36552;DHT22;22559;54.176;12.102;2023-03-01T11:09:49;5.40;99.90
36552;DHT22;22559;54.176;12.102;2023-03-01T11:12:16;5.30;99.90
36552;DHT22;22559;54.176;12.102;2023-03-01T11:14:53;5.30;99.90
36552;DHT22;22559;54.176;12.102;2023-03-01T11:17:27;5.40;99.90
36552;DHT22;22559;54.176;12.102;2023-03-01T11:20:09;5.40;99.90
36552;DHT22;22559;54.176;12.102;2023-03-01T11:23:09;5.40;99.90
36552;DHT22;22559;54.176;12.102;2023-03-01T11:25:47;5.40;99.90
36552;DHT22;22559;54.176;12.102;2023-03-01T11:28:17;5.40;99.90
36552;DHT22;22559;54.176;12.102;2023-03-01T11:36:32;5.40;99.90
36552;DHT22;22559;54.176;12.102;2023-03-01T11:39:13;5.60;99.90
36552;DHT22;22559;54.176;12.102;2023-03-01T11:41:42;5.60;99.90
36552;DHT22;22559;54.176;12.102;2023-03-01T11:44:18;5.50;99.90
36552;DHT22;22559;54.176;12.102;2023-03-01T11:49:49;5.40;99.90
36552;DHT22;22559;54.176;12.102;2023-03-01T12:11:32;5.10;99.90
36552;DHT22;22559;54.176;12.102;2023-03-01T12:16:51;5.10;99.90
36552;DHT22;22559;54.176;12.102;2023-03-01T12:41:31;4.80;99.90
36552;DHT22;22559;54.176;12.102;2023-03-01T12:44:15;4.90;99.90
36552;DHT22;22559;54.176;12.102;2023-03-01T12:47:40;5.00;99.90
36552;DHT22;22559;54.176;12.102;2023-03-01T12:49:36;4.90;99.90
36552;DHT22;22559;54.176;12.102;2023-03-01T12:52:23;5.00;99.90
36552;DHT22;22559;54.176;12.102;2023-03-01T12:54:53;5.10;99.90
36552;DHT22;22559;54.176;12.102;2023-03-01T12:57:28;5.00;99.90
36552;DHT22;22559;54.176;12.102;2023-03-01T13:05:35;5.00;99.90
36552;DHT22;22559;54.176;12.102;2023-03-01T13:10:54;4.90;99.90
36552;DHT22;22559;54.176;12.102;2023-03-01T13:13:23;5.00;99.90
36552;DHT22;22559;54.176;12.102;2023-03-01T13:15:50;5.00;99.90
36552;DHT22;22559;54.176;12.102;2023-03-01T13:26:15;4.80;99.90
36552;DHT22;22559;54.176;12.102;2023-03-01T13:34:03;4.80;99.90
36552;DHT22;22559;54.176;12.102;2023-03-01T13:39:44;4.80;99.90
36552;DHT22;22559;54.176;12.102;2023-03-01T13:41:50;4.80;99.90
36552;DHT22;22559;54.176;12.102;2023-03-01T13:46:48;4.80;99.90
36552;DHT22;22559;54.176;12.102;2023-03-01T13:49:18;4.90;99.90
36552;DHT22;22559;54.176;12.102;2023-03-01T13:51:47;4.80;99.90
36552;DHT22;22559;54.176;12.102;2023-03-01T13:54:15;4.80;99.90
36552;DHT22;22559;54.176;12.102;2023-03-01T13:56:41;4.80;99.90
36552;DHT22;22559;54.176;12.102;2023-03-01T13:59:19;4.80;99.90
36552;DHT22;22559;54.176;12.102;2023-03-01T14:01:55;4.80;99.90
36552;DHT22;22559;54.176;12.102;2023-03-01T14:04:29;4.80;99.90
36552;DHT22;22559;54.176;12.102;2023-03-01T14:07:32;4.70;99.90
36552;DHT22;22559;54.176;12.102;2023-03-01T14:10:01;4.60;99.90
36552;DHT22;22559;54.176;12.102;2023-03-01T14:12:42;4.60;99.90
36552;DHT22;22559;54.176;12.102;2023-03-01T14:15:22;4.60;99.90
36552;DHT22;22559;54.176;12.102;2023-03-01T14:20:25;4.40;99.90
36552;DHT22;22559;54.176;12.102;2023-03-01T14:22:54;4.30;99.90
36552;DHT22;22559;54.176;12.102;2023-03-01T14:25:30;4.30;99.90
36552;DHT22;22559;54.176;12.102;2023-03-01T14:30:47;4.40;99.90
36552;DHT22;22559;54.176;12.102;2023-03-01T14:33:22;4.30;99.90
36552;DHT22;22559;54.176;12.102;2023-03-01T14:36:02;4.30;99.90
36552;DHT22;22559;54.176;12.102;2023-03-01T14:38:47;4.40;99.90
36552;DHT22;22559;54.176;12.102;2023-03-01T14:41:17;4.40;99.90
36552;DHT22;22559;54.176;12.102;2023-03-01T14:43:59;4.30;99.90
36552;DHT22;22559;54.176;12.102;2023-03-01T14:46:37;4.30;99.90
36552;DHT22;22559;54.176;12.102;2023-03-01T14:49:13;4.10;99.90
36552;DHT22;22559;54.176;12.102;2023-03-01T14:51:42;4.00;99.90
36552;DHT22;22559;54.176;12.102;2023-03-01T14:56:58;4.10;99.90
36552;DHT22;22559;54.176;12.102;2023-03-01T14:59:25;4.10;99.90
36552;DHT22;22559;54.176;12.102;2023-03-01T15:01:53;4.10;99.90
36552;DHT22;22559;54.176;12.102;2023-03-01T15:04:20;4.20;99.90
36552;DHT22;22559;54.176;12.102;2023-03-01T15:06:50;4.20;99.90
36552;DHT22;22559;54.176;12.102;2023-03-01T15:09:17;4.10;99.90
36552;DHT22;22559;54.176;12.102;2023-03-01T15:11:44;4.10;99.90
36552;DHT22;22559;54.176;12.102;2023-03-01T15:14:27;4.10;99.90
36552;DHT22;22559;54.176;12.102;2023-03-01T15:16:54;4.10;99.90
36552;DHT22;22559;54.176;12.102;2023-03-01T15:19:28;4.00;99.90
36552;DHT22;22559;54.176;12.102;2023-03-01T15:21:55;3.90;99.90
36552;DHT22;22559;54.176;12.102;2023-03-01T15:24:24;3.80;99.90
36552;DHT22;22559;54.176;12.102;2023-03-01T15:26:59;3.70;99.90
36552;DHT22;22559;54.176;12.102;2023-03-01T15:29:32;3.70;99.90
36552;DHT22;22559;54.176;12.102;2023-03-01T15:32:20;3.70;99.90
36552;DHT22;22559;54.176;12.102;2023-03-01T15:34:49;3.70;99.90
36552;DHT22;22559;54.176;12.102;2023-03-01T15:37:43;3.80;99.90
36552;DHT22;22559;54.176;12.102;2023-03-01T15:40:30;3.80;99.90
36552;DHT22;22559;54.176;12.102;2023-03-01T15:43:01;3.80;99.90
36552;DHT22;22559;54.176;12.102;2023-03-01T15:45:29;3.80;99.90
36552;DHT22;22559;54.176;12.102;2023-03-01T15:48:02;3.80;99.90
36552;DHT22;22559;54.176;12.102;2023-03-01T15:52:56;3.70;99.90
36552;DHT22;22559;54.176;12.102;2023-03-01T15:55:24;3.60;99.90
36552;DHT22;22559;54.176;12.102;2023-03-01T16:00:35;3.50;99.90
36552;DHT22;22559;54.176;12.102;2023-03-01T16:03:01;3.60;99.90
36552;DHT22;22559;54.176;12.102;2023-03-01T16:05:29;3.50;99.90
36552;DHT22;22559;54.176;12.102;2023-03-01T16:07:56;3.50;99.90
36552;DHT22;22559;54.176;12.102;2023-03-01T16:10:22;3.50;99.90
36552;DHT22;22559;54.176;12.102;2023-03-01T16:12:49;3.60;99.90
36552;DHT22;22559;54.176;12.102;2023-03-01T16:15:28;3.60;99.90
36552;DHT22;22559;54.176;12.102;2023-03-01T16:17:54;3.50;99.90
36552;DHT22;22559;54.176;12.102;2023-03-01T16:20:21;3.40;99.90
36552;DHT22;22559;54.176;12.102;2023-03-01T16:22:47;3.40;99.90
36552;DHT22;22559;54.176;12.102;2023-03-01T16:25:15;3.40;99.90
36552;DHT22;22559;54.176;12.102;2023-03-01T16:27:49;3.40;99.90
36552;DHT22;22559;54.176;12.102;2023-03-01T16:30:17;3.40;99.90
36552;DHT22;22559;54.176;12.102;2023-03-01T16:32:45;3.40;99.90
36552;DHT22;22559;54.176;12.102;2023-03-01T16:35:13;3.40;99.90
36552;DHT22;22559;54.176;12.102;2023-03-01T16:37:40;3.40;99.90
36552;DHT22;22559;54.176;12.102;2023-03-01T16:40:10;3.40;99.90
36552;DHT22;22559;54.176;12.102;2023-03-01T16:42:41;3.30;99.90
36552;DHT22;22559;54.176;12.102;2023-03-01T16:45:07;3.30;99.90
36552;DHT22;22559;54.176;12.102;2023-03-01T16:47:34;3.30;99.90
36552;DHT22;22559;54.176;12.102;2023-03-01T16:50:00;3.30;99.90
36552;DHT22;22559;54.176;12.102;2023-03-01T16:52:26;3.20;99.90
36552;DHT22;22559;54.176;12.102;2023-03-01T16:54:51;3.20;99.90
36552;DHT22;22559;54.176;12.102;2023-03-01T16:57:18;3.30;99.90
36552;DHT22;22559;54.176;12.102;2023-03-01T16:59:43;3.20;99.90
36552;DHT22;22559;54.176;12.102;2023-03-01T17:02:13;3.20;99.90
36552;DHT22;22559;54.176;12.102;2023-03-01T17:04:40;3.20;99.90
36552;DHT22;22559;54.176;12.102;2023-03-01T17:07:06;3.20;99.90
36552;DHT22;22559;54.176;12.102;2023-03-01T17:09:36;3.20;99.90
36552;DHT22;22559;54.176;12.102;2023-03-01T17:12:03;3.10;99.90
36552;DHT22;22559;54.176;12.102;2023-03-01T17:14:28;3.00;99.90
36552;DHT22;22559;54.176;12.102;2023-03-01T17:16:54;3.10;99.90
36552;DHT22;22559;54.176;12.102;2023-03-01T17:19:20;3.10;99.90
36552;DHT22;22559;54.176;12.102;2023-03-01T17:21:46;3.00;99.90
36552;DHT22;22559;54.176;12.102;2023-03-01T17:24:12;3.00;99.90
36552;DHT22;22559;54.176;12.102;2023-03-01T17:26:38;3.00;99.90
36552;DHT22;22559;54.176;12.102;2023-03-01T17:29:04;3.00;99.90
36552;DHT22;22559;54.176;12.102;2023-03-01T17:31:32;3.00;99.90
36552;DHT22;22559;54.176;12.102;2023-03-01T17:33:58;3.00;99.90
36552;DHT22;22559;54.176;12.102;2023-03-01T17:36:23;3.00;99.90
36552;DHT22;22559;54.176;12.102;2023-03-01T17:38:50;3.00;99.90
36552;DHT22;22559;54.176;12.102;2023-03-01T17:41:17;3.00;99.90
36552;DHT22;22559;54.176;12.102;2023-03-01T17:43:46;2.90;99.90
36552;DHT22;22559;54.176;12.102;2023-03-01T17:46:12;3.00;99.90